sensor_id;sensor_type;location;lat;lon;timestamp;temperature;humidity
20885;DHT22;10602;48.000;9.654;2023-07-30T04:15:24;14.50;99.90
20885;DHT22;10602;48.000;9.654;2023-07-30T04:17:51;14.50;99.90
20885;DHT22;10602;48.000;9.654;2023-07-30T04:20:19;14.60;99.90
20885;DHT22;10602;48.000;9.654;2023-07-30T04:22:46;14.60;99.90
20885;DHT22;10602;48.000;9.654;2023-07-30T04:25:14;14.60;99.90
20885;DHT22;10602;48.000;9.654;2023-07-30T04:27:41;14.60;99.90
20885;DHT22;10602;48.000;9.654;2023-07-30T04:30:10;14.60;99.90
20885;DHT22;10602;48.000;9.654;2023-07-30T04:32:37;14.60;99.90
20885;DHT22;10602;48.000;9.654;2023-07-30T04:35:05;14.70;99.90
20885;DHT22;10602;48.000;9.654;2023-07-30T04:37:33;14.70;99.90
20885;DHT22;10602;48.000;9.654;2023-07-30T04:40:00;14.70;99.90
20885;DHT22;10602;48.000;9.654;2023-07-30T04:42:28;14.80;99.90
20885;DHT22;10602;48.000;9.654;2023-07-30T04:44:55;14.80;99.90
20885;DHT22;10602;48.000;9.654;2023-07-30T04:47:23;14.90;99.90
20885;DHT22;10602;48.000;9.654;2023-07-30T04:49:51;15.00;99.90
20885;DHT22;10602;48.000;9.654;2023-07-30T04:52:19;15.20;99.90
20885;DHT22;10602;48.000;9.654;2023-07-30T04:54:46;15.30;99.90
20885;DHT22;10602;48.000;9.654;2023-07-30T04:57:14;15.30;99.90
20885;DHT22;10602;48.000;9.654;2023-07-30T04:59:43;15.40;99.90
20885;DHT22;10602;48.000;9.654;2023-07-30T05:02:10;15.50;99.90
20885;DHT22;10602;48.000;9.654;2023-07-30T05:04:38;15.60;99.90
20885;DHT22;10602;48.000;9.654;2023-07-30T05:07:05;15.70;99.90
20885;DHT22;10602;48.000;9.654;2023-07-30T05:09:33;15.80;99.90
20885;DHT22;10602;48.000;9.654;2023-07-30T05:12:00;15.80;99.90
20885;DHT22;10602;48.000;9.654;2023-07-30T05:43:04;17.00;99.90
20885;DHT22;10602;48.000;9.654;2023-07-30T05:45:33;17.10;99.90
20885;DHT22;10602;48.000;9.654;2023-07-30T05:48:06;17.10;99.90
20885;DHT22;10602;48.000;9.654;2023-07-30T05:50:32;17.20;99.90
20885;DHT22;10602;48.000;9.654;2023-07-30T05:53:00;17.30;99.90
20885;DHT22;10602;48.000;9.654;2023-07-30T05:55:35;17.40;99.90
20885;DHT22;10602;48.000;9.654;2023-07-30T05:57:59;17.60;99.90
20885;DHT22;10602;48.000;9.654;2023-07-30T06:00:27;17.60;99.90
20885;DHT22;10602;48.000;9.654;2023-07-30T06:02:59;17.80;99.90
20885;DHT22;10602;48.000;9.654;2023-07-30T06:05:27;18.00;99.90
20885;DHT22;10602;48.000;9.654;2023-07-30T06:07:58;18.00;99.90
20885;DHT22;10602;48.000;9.654;2023-07-30T06:10:26;18.10;99.90
20885;DHT22;10602;48.000;9.654;2023-07-30T06:12:53;18.20;99.90
20885;DHT22;10602;48.000;9.654;2023-07-30T06:15:21;18.30;99.90
20885;DHT22;10602;48.000;9.654;2023-07-30T06:17:48;18.50;99.90
20885;DHT22;10602;48.000;9.654;2023-07-30T06:20:16;18.50;99.90
20885;DHT22;10602;48.000;9.654;2023-07-30T06:23:02;18.60;99.90
20885;DHT22;10602;48.000;9.654;2023-07-30T06:25:21;18.70;99.90
20885;DHT22;10602;48.000;9.654;2023-07-30T06:27:49;19.00;99.90
20885;DHT22;10602;48.000;9.654;2023-07-30T06:30:19;19.10;99.90
20885;DHT22;10602;48.000;9.654;2023-07-30T06:32:46;19.30;99.90
20885;DHT22;10602;48.000;9.654;2023-07-30T06:35:20;19.50;99.90
20885;DHT22;10602;48.000;9.654;2023-07-30T06:37:55;19.70;99.90
20885;DHT22;10602;48.000;9.654;2023-07-30T06:40:19;19.80;99.90
20885;DHT22;10602;48.000;9.654;2023-07-30T06:42:46;19.90;30.90
20885;DHT22;10602;48.000;9.654;2023-07-30T06:45:14;19.80;99.90
20885;DHT22;10602;48.000;9.654;2023-07-30T06:47:41;19.80;99.90
20885;DHT22;10602;48.000;9.654;2023-07-30T06:50:09;20.00;99.90
20885;DHT22;10602;48.000;9.654;2023-07-30T06:52:37;20.20;99.90
20885;DHT22;10602;48.000;9.654;2023-07-30T06:55:05;20.40;99.90
20885;DHT22;10602;48.000;9.654;2023-07-30T06:57:32;20.40;99.90
20885;DHT22;10602;48.000;9.654;2023-07-30T07:00:00;20.50;99.90
20885;DHT22;10602;48.000;9.654;2023-07-30T07:02:30;20.60;99.90
20885;DHT22;10602;48.000;9.654;2023-07-30T07:04:59;20.20;99.90
20885;DHT22;10602;48.000;9.654;2023-07-30T07:07:27;19.90;99.90
20885;DHT22;10602;48.000;9.654;2023-07-30T07:09:54;19.70;99.90
20885;DHT22;10602;48.000;9.654;2023-07-30T07:12:22;19.60;99.90
20885;DHT22;10602;48.000;9.654;2023-07-30T07:14:49;19.60;99.90
20885;DHT22;10602;48.000;9.654;2023-07-30T07:17:17;19.40;99.90
20885;DHT22;10602;48.000;9.654;2023-07-30T07:19:44;19.40;99.90
20885;DHT22;10602;48.000;9.654;2023-07-30T07:22:12;19.30;99.90
20885;DHT22;10602;48.000;9.654;2023-07-30T07:24:40;19.40;99.90
20885;DHT22;10602;48.000;9.654;2023-07-30T07:27:10;19.40;99.90
20885;DHT22;10602;48.000;9.654;2023-07-30T07:29:45;19.50;99.90
20885;DHT22;10602;48.000;9.654;2023-07-30T07:32:19;19.60;99.90
20885;DHT22;10602;48.000;9.654;2023-07-30T07:34:50;19.70;99.90
20885;DHT22;10602;48.000;9.654;2023-07-30T07:37:21;19.70;99.90
20885;DHT22;10602;48.000;9.654;2023-07-30T07:39:49;19.80;99.90
20885;DHT22;10602;48.000;9.654;2023-07-30T07:42:19;19.80;99.90
20885;DHT22;10602;48.000;9.654;2023-07-30T07:44:51;19.80;99.90
20885;DHT22;10602;48.000;9.654;2023-07-30T07:47:18;20.00;99.90
20885;DHT22;10602;48.000;9.654;2023-07-30T07:49:52;20.20;99.90
20885;DHT22;10602;48.000;9.654;2023-07-30T07:52:31;20.40;99.90
20885;DHT22;10602;48.000;9.654;2023-07-30T07:55:09;20.80;99.90
20885;DHT22;10602;48.000;9.654;2023-07-30T07:57:42;21.00;99.90
20885;DHT22;10602;48.000;9.654;2023-07-30T08:00:08;21.10;99.90
20885;DHT22;10602;48.000;9.654;2023-07-30T08:02:49;21.30;99.90
20885;DHT22;10602;48.000;9.654;2023-07-30T08:05:13;21.40;99.90
20885;DHT22;10602;48.000;9.654;2023-07-30T08:07:40;21.70;99.90
20885;DHT22;10602;48.000;9.654;2023-07-30T08:10:18;21.30;99.90
20885;DHT22;10602;48.000;9.654;2023-07-30T08:12:47;21.30;99.90
20885;DHT22;10602;48.000;9.654;2023-07-30T08:15:16;21.40;99.90
20885;DHT22;10602;48.000;9.654;2023-07-30T08:17:53;21.50;99.90
20885;DHT22;10602;48.000;9.654;2023-07-30T08:20:22;22.00;99.90
20885;DHT22;10602;48.000;9.654;2023-07-30T08:23:03;21.70;99.90
20885;DHT22;10602;48.000;9.654;2023-07-30T08:25:38;21.80;1.00
20885;DHT22;10602;48.000;9.654;2023-07-30T08:27:55;22.00;1.00
20885;DHT22;10602;48.000;9.654;2023-07-30T08:30:24;22.00;99.90
20885;DHT22;10602;48.000;9.654;2023-07-30T08:32:52;21.90;99.90
20885;DHT22;10602;48.000;9.654;2023-07-30T08:35:21;22.00;99.90
20885;DHT22;10602;48.000;9.654;2023-07-30T08:37:49;21.60;99.90
20885;DHT22;10602;48.000;9.654;2023-07-30T08:40:21;21.40;99.90
20885;DHT22;10602;48.000;9.654;2023-07-30T09:56:09;23.70;1.00
20885;DHT22;10602;48.000;9.654;2023-07-30T09:58:38;23.80;98.10
20885;DHT22;10602;48.000;9.654;2023-07-30T10:01:19;23.60;97.20
20885;DHT22;10602;48.000;9.654;2023-07-30T10:03:35;23.40;97.20
20885;DHT22;10602;48.000;9.654;2023-07-30T10:06:06;23.20;97.60
20885;DHT22;10602;48.000;9.654;2023-07-30T10:08:39;23.20;97.60
20885;DHT22;10602;48.000;9.654;2023-07-30T10:11:09;23.10;98.40
20885;DHT22;10602;48.000;9.654;2023-07-30T10:13:37;22.90;1.00
20885;DHT22;10602;48.000;9.654;2023-07-30T10:16:12;23.00;1.00
20885;DHT22;10602;48.000;9.654;2023-07-30T10:18:43;23.40;1.00
20885;DHT22;10602;48.000;9.654;2023-07-30T10:21:21;23.70;96.10
20885;DHT22;10602;48.000;9.654;2023-07-30T10:23:45;23.80;96.00
20885;DHT22;10602;48.000;9.654;2023-07-30T10:26:13;23.40;92.40
20885;DHT22;10602;48.000;9.654;2023-07-30T10:28:43;23.30;95.20
20885;DHT22;10602;48.000;9.654;2023-07-30T10:31:11;24.10;93.50
20885;DHT22;10602;48.000;9.654;2023-07-30T10:33:52;24.40;91.80
20885;DHT22;10602;48.000;9.654;2023-07-30T10:36:33;24.60;92.50
20885;DHT22;10602;48.000;9.654;2023-07-30T10:39:16;25.10;91.70
20885;DHT22;10602;48.000;9.654;2023-07-30T10:41:45;24.20;90.30
20885;DHT22;10602;48.000;9.654;2023-07-30T10:44:27;23.90;91.20
20885;DHT22;10602;48.000;9.654;2023-07-30T10:46:55;24.30;90.80
20885;DHT22;10602;48.000;9.654;2023-07-30T10:49:23;24.70;90.50
20885;DHT22;10602;48.000;9.654;2023-07-30T10:51:56;25.60;89.40
20885;DHT22;10602;48.000;9.654;2023-07-30T10:54:24;25.60;84.50
20885;DHT22;10602;48.000;9.654;2023-07-30T10:56:52;25.70;81.70
20885;DHT22;10602;48.000;9.654;2023-07-30T10:59:21;25.80;84.10
20885;DHT22;10602;48.000;9.654;2023-07-30T11:01:48;26.00;83.30
20885;DHT22;10602;48.000;9.654;2023-07-30T11:04:18;26.30;83.80
20885;DHT22;10602;48.000;9.654;2023-07-30T11:06:48;26.40;76.90
20885;DHT22;10602;48.000;9.654;2023-07-30T11:09:24;26.10;78.00
20885;DHT22;10602;48.000;9.654;2023-07-30T11:11:54;26.10;73.60
20885;DHT22;10602;48.000;9.654;2023-07-30T11:14:24;26.20;71.90
20885;DHT22;10602;48.000;9.654;2023-07-30T11:16:58;26.20;71.20
20885;DHT22;10602;48.000;9.654;2023-07-30T11:19:28;26.30;68.40
20885;DHT22;10602;48.000;9.654;2023-07-30T11:21:57;25.70;67.20
20885;DHT22;10602;48.000;9.654;2023-07-30T11:24:35;25.80;70.60
20885;DHT22;10602;48.000;9.654;2023-07-30T11:27:03;25.90;70.90
20885;DHT22;10602;48.000;9.654;2023-07-30T11:29:30;26.00;68.30
20885;DHT22;10602;48.000;9.654;2023-07-30T11:31:59;26.10;66.70
20885;DHT22;10602;48.000;9.654;2023-07-30T11:34:28;26.70;64.70
20885;DHT22;10602;48.000;9.654;2023-07-30T11:36:57;26.60;62.50
20885;DHT22;10602;48.000;9.654;2023-07-30T11:39:25;27.00;64.30
20885;DHT22;10602;48.000;9.654;2023-07-30T11:41:54;27.10;61.40
20885;DHT22;10602;48.000;9.654;2023-07-30T11:44:38;26.20;58.40
20885;DHT22;10602;48.000;9.654;2023-07-30T11:47:07;26.10;59.40
20885;DHT22;10602;48.000;9.654;2023-07-30T11:49:35;26.20;56.10
20885;DHT22;10602;48.000;9.654;2023-07-30T11:52:08;26.00;58.00
20885;DHT22;10602;48.000;9.654;2023-07-30T11:54:36;25.50;58.50
20885;DHT22;10602;48.000;9.654;2023-07-30T11:57:03;25.30;57.20
20885;DHT22;10602;48.000;9.654;2023-07-30T11:59:31;25.00;59.30
20885;DHT22;10602;48.000;9.654;2023-07-30T12:01:59;24.80;60.90
20885;DHT22;10602;48.000;9.654;2023-07-30T12:04:42;25.50;62.20
20885;DHT22;10602;48.000;9.654;2023-07-30T12:07:03;25.80;56.20
20885;DHT22;10602;48.000;9.654;2023-07-30T12:09:34;26.30;57.10
20885;DHT22;10602;48.000;9.654;2023-07-30T12:12:03;26.50;53.00
20885;DHT22;10602;48.000;9.654;2023-07-30T12:17:14;26.10;49.40
20885;DHT22;10602;48.000;9.654;2023-07-30T12:19:42;27.00;52.30
20885;DHT22;10602;48.000;9.654;2023-07-30T12:22:09;27.10;50.60
20885;DHT22;10602;48.000;9.654;2023-07-30T12:24:37;26.60;51.00
20885;DHT22;10602;48.000;9.654;2023-07-30T12:27:05;26.60;52.30
20885;DHT22;10602;48.000;9.654;2023-07-30T12:29:32;26.70;52.60
20885;DHT22;10602;48.000;9.654;2023-07-30T12:32:00;26.80;49.50
20885;DHT22;10602;48.000;9.654;2023-07-30T12:34:27;25.80;47.70
20885;DHT22;10602;48.000;9.654;2023-07-30T12:36:55;25.20;49.40
20885;DHT22;10602;48.000;9.654;2023-07-30T12:39:22;24.50;50.80
20885;DHT22;10602;48.000;9.654;2023-07-30T12:41:50;24.60;51.70
20885;DHT22;10602;48.000;9.654;2023-07-30T12:44:17;25.30;51.00
20885;DHT22;10602;48.000;9.654;2023-07-30T12:46:45;25.60;51.90
20885;DHT22;10602;48.000;9.654;2023-07-30T12:49:12;26.10;49.80
20885;DHT22;10602;48.000;9.654;2023-07-30T12:51:40;26.60;48.80
20885;DHT22;10602;48.000;9.654;2023-07-30T12:54:07;26.80;49.60
20885;DHT22;10602;48.000;9.654;2023-07-30T12:56:35;26.20;47.00
20885;DHT22;10602;48.000;9.654;2023-07-30T12:59:03;26.20;49.40
20885;DHT22;10602;48.000;9.654;2023-07-30T13:01:30;26.20;48.20
20885;DHT22;10602;48.000;9.654;2023-07-30T13:03:58;26.40;48.50
20885;DHT22;10602;48.000;9.654;2023-07-30T13:06:27;26.10;47.90
20885;DHT22;10602;48.000;9.654;2023-07-30T13:08:54;26.00;49.00
20885;DHT22;10602;48.000;9.654;2023-07-30T13:11:22;25.50;49.40
20885;DHT22;10602;48.000;9.654;2023-07-30T13:13:49;25.00;51.10
20885;DHT22;10602;48.000;9.654;2023-07-30T13:16:16;24.90;51.00
20885;DHT22;10602;48.000;9.654;2023-07-30T13:18:44;25.00;51.80
20885;DHT22;10602;48.000;9.654;2023-07-30T13:21:12;24.70;53.40
20885;DHT22;10602;48.000;9.654;2023-07-30T13:23:39;24.30;53.20
20885;DHT22;10602;48.000;9.654;2023-07-30T13:26:07;24.90;54.90
20885;DHT22;10602;48.000;9.654;2023-07-30T13:28:34;25.50;55.00
20885;DHT22;10602;48.000;9.654;2023-07-30T13:31:02;25.60;55.20
20885;DHT22;10602;48.000;9.654;2023-07-30T13:33:29;24.90;54.70
20885;DHT22;10602;48.000;9.654;2023-07-30T13:35:57;24.80;55.80
20885;DHT22;10602;48.000;9.654;2023-07-30T13:38:24;25.30;54.50
20885;DHT22;10602;48.000;9.654;2023-07-30T13:40:53;24.80;54.60
20885;DHT22;10602;48.000;9.654;2023-07-30T13:43:21;25.10;56.30
20885;DHT22;10602;48.000;9.654;2023-07-30T13:45:48;24.90;54.50
20885;DHT22;10602;48.000;9.654;2023-07-30T13:48:17;24.90;56.20
20885;DHT22;10602;48.000;9.654;2023-07-30T13:50:45;24.70;56.40
20885;DHT22;10602;48.000;9.654;2023-07-30T13:53:12;24.60;56.00
20885;DHT22;10602;48.000;9.654;2023-07-30T13:55:40;24.40;54.90
20885;DHT22;10602;48.000;9.654;2023-07-30T13:58:07;24.50;56.00
20885;DHT22;10602;48.000;9.654;2023-07-30T14:00:35;24.60;54.90
20885;DHT22;10602;48.000;9.654;2023-07-30T14:03:03;24.80;56.70
20885;DHT22;10602;48.000;9.654;2023-07-30T14:05:31;24.60;56.30
20885;DHT22;10602;48.000;9.654;2023-07-30T14:07:58;24.20;57.10
20885;DHT22;10602;48.000;9.654;2023-07-30T14:10:26;24.30;57.40
20885;DHT22;10602;48.000;9.654;2023-07-30T14:12:53;24.30;55.20
20885;DHT22;10602;48.000;9.654;2023-07-30T14:15:21;24.20;56.00
20885;DHT22;10602;48.000;9.654;2023-07-30T14:17:49;24.00;56.10
20885;DHT22;10602;48.000;9.654;2023-07-30T14:20:18;23.80;56.20
20885;DHT22;10602;48.000;9.654;2023-07-30T14:22:46;23.40;57.70
20885;DHT22;10602;48.000;9.654;2023-07-30T14:25:13;23.40;58.90
20885;DHT22;10602;48.000;9.654;2023-07-30T14:27:41;23.50;58.80
20885;DHT22;10602;48.000;9.654;2023-07-30T14:30:08;23.60;60.10
20885;DHT22;10602;48.000;9.654;2023-07-30T14:32:36;23.70;60.50
20885;DHT22;10602;48.000;9.654;2023-07-30T14:35:04;23.80;59.90
20885;DHT22;10602;48.000;9.654;2023-07-30T14:37:32;23.70;60.30
20885;DHT22;10602;48.000;9.654;2023-07-30T14:39:59;23.70;59.80
20885;DHT22;10602;48.000;9.654;2023-07-30T14:42:27;23.80;59.50
20885;DHT22;10602;48.000;9.654;2023-07-30T14:44:54;23.50;58.00
20885;DHT22;10602;48.000;9.654;2023-07-30T14:47:23;23.50;58.30
20885;DHT22;10602;48.000;9.654;2023-07-30T14:49:51;23.50;60.50
20885;DHT22;10602;48.000;9.654;2023-07-30T14:52:18;23.70;59.60
20885;DHT22;10602;48.000;9.654;2023-07-30T14:54:46;23.80;60.00
20885;DHT22;10602;48.000;9.654;2023-07-30T14:57:14;23.60;58.80
20885;DHT22;10602;48.000;9.654;2023-07-30T14:59:41;23.50;58.70
20885;DHT22;10602;48.000;9.654;2023-07-30T15:02:09;23.30;58.50
20885;DHT22;10602;48.000;9.654;2023-07-30T15:04:36;23.40;60.80
20885;DHT22;10602;48.000;9.654;2023-07-30T15:07:04;23.50;60.60
20885;DHT22;10602;48.000;9.654;2023-07-30T15:09:32;23.70;60.80
20885;DHT22;10602;48.000;9.654;2023-07-30T15:12:02;23.90;62.10
20885;DHT22;10602;48.000;9.654;2023-07-30T15:14:31;24.10;61.30
20885;DHT22;10602;48.000;9.654;2023-07-30T15:16:59;23.80;59.20
20885;DHT22;10602;48.000;9.654;2023-07-30T15:19:26;23.50;60.20
20885;DHT22;10602;48.000;9.654;2023-07-30T15:21:54;23.40;62.00
20885;DHT22;10602;48.000;9.654;2023-07-30T15:24:21;23.50;62.40
20885;DHT22;10602;48.000;9.654;2023-07-30T15:26:49;23.60;61.60
20885;DHT22;10602;48.000;9.654;2023-07-30T15:29:16;23.70;63.60
20885;DHT22;10602;48.000;9.654;2023-07-30T15:31:44;23.80;62.90
20885;DHT22;10602;48.000;9.654;2023-07-30T15:34:12;24.00;63.60
20885;DHT22;10602;48.000;9.654;2023-07-30T15:36:40;24.10;64.00
20885;DHT22;10602;48.000;9.654;2023-07-30T15:39:10;24.20;63.70
20885;DHT22;10602;48.000;9.654;2023-07-30T15:41:38;24.00;63.70
20885;DHT22;10602;48.000;9.654;2023-07-30T15:44:05;23.90;64.20
20885;DHT22;10602;48.000;9.654;2023-07-30T15:46:39;23.90;66.60
20885;DHT22;10602;48.000;9.654;2023-07-30T15:49:09;23.70;69.00
20885;DHT22;10602;48.000;9.654;2023-07-30T15:51:37;23.60;1.00
20885;DHT22;10602;48.000;9.654;2023-07-30T15:54:04;23.80;1.00
20885;DHT22;10602;48.000;9.654;2023-07-30T15:56:32;24.00;1.00
20885;DHT22;10602;48.000;9.654;2023-07-30T15:59:04;24.30;1.00
20885;DHT22;10602;48.000;9.654;2023-07-30T16:01:32;24.40;1.00
20885;DHT22;10602;48.000;9.654;2023-07-30T16:03:59;24.60;1.00
20885;DHT22;10602;48.000;9.654;2023-07-30T16:06:30;24.70;1.00
20885;DHT22;10602;48.000;9.654;2023-07-30T16:08:57;24.60;1.00
20885;DHT22;10602;48.000;9.654;2023-07-30T16:11:25;24.20;1.00
20885;DHT22;10602;48.000;9.654;2023-07-30T16:13:52;23.90;1.00
20885;DHT22;10602;48.000;9.654;2023-07-30T16:16:20;23.70;1.00
20885;DHT22;10602;48.000;9.654;2023-07-30T16:18:48;23.50;1.00
20885;DHT22;10602;48.000;9.654;2023-07-30T16:21:38;23.50;1.00
20885;DHT22;10602;48.000;9.654;2023-07-30T16:27:11;23.70;1.00
20885;DHT22;10602;48.000;9.654;2023-07-30T16:29:38;23.70;1.00
20885;DHT22;10602;48.000;9.654;2023-07-30T16:32:06;23.70;1.00
20885;DHT22;10602;48.000;9.654;2023-07-30T16:34:33;23.60;1.00
20885;DHT22;10602;48.000;9.654;2023-07-30T16:37:01;23.60;1.00
20885;DHT22;10602;48.000;9.654;2023-07-30T16:39:30;23.50;1.00
20885;DHT22;10602;48.000;9.654;2023-07-30T16:41:58;23.40;1.00
20885;DHT22;10602;48.000;9.654;2023-07-30T16:44:25;23.30;1.00
20885;DHT22;10602;48.000;9.654;2023-07-30T16:46:53;23.30;1.00
20885;DHT22;10602;48.000;9.654;2023-07-30T16:49:21;23.20;1.00
20885;DHT22;10602;48.000;9.654;2023-07-30T16:51:52;23.10;1.00
20885;DHT22;10602;48.000;9.654;2023-07-30T16:54:20;23.10;1.00
20885;DHT22;10602;48.000;9.654;2023-07-30T16:56:48;23.10;1.00
20885;DHT22;10602;48.000;9.654;2023-07-30T16:59:16;23.10;1.00
20885;DHT22;10602;48.000;9.654;2023-07-30T17:01:44;23.20;1.00
20885;DHT22;10602;48.000;9.654;2023-07-30T17:04:11;23.20;1.00
20885;DHT22;10602;48.000;9.654;2023-07-30T17:06:39;23.20;1.00
20885;DHT22;10602;48.000;9.654;2023-07-30T17:09:06;23.10;1.00
20885;DHT22;10602;48.000;9.654;2023-07-30T17:11:38;22.90;1.00
20885;DHT22;10602;48.000;9.654;2023-07-30T17:14:05;22.80;1.00
20885;DHT22;10602;48.000;9.654;2023-07-30T17:16:33;22.70;1.00
20885;DHT22;10602;48.000;9.654;2023-07-30T17:19:00;22.50;1.00
20885;DHT22;10602;48.000;9.654;2023-07-30T17:21:28;22.50;1.00
20885;DHT22;10602;48.000;9.654;2023-07-30T17:23:56;22.40;1.00
20885;DHT22;10602;48.000;9.654;2023-07-30T17:26:25;22.20;1.00
20885;DHT22;10602;48.000;9.654;2023-07-30T17:28:53;22.20;1.00
20885;DHT22;10602;48.000;9.654;2023-07-30T17:31:20;22.10;10.60
20885;DHT22;10602;48.000;9.654;2023-07-30T17:33:48;22.10;60.20
20885;DHT22;10602;48.000;9.654;2023-07-30T17:36:15;22.00;18.00
20885;DHT22;10602;48.000;9.654;2023-07-30T17:38:43;21.90;99.90
20885;DHT22;10602;48.000;9.654;2023-07-30T17:41:10;21.70;99.90
20885;DHT22;10602;48.000;9.654;2023-07-30T17:43:38;21.70;99.90
20885;DHT22;10602;48.000;9.654;2023-07-30T17:46:06;21.60;99.90
20885;DHT22;10602;48.000;9.654;2023-07-30T17:48:34;21.50;99.90
20885;DHT22;10602;48.000;9.654;2023-07-30T17:51:01;21.40;99.90
20885;DHT22;10602;48.000;9.654;2023-07-30T17:53:29;21.30;99.90
20885;DHT22;10602;48.000;9.654;2023-07-30T17:55:58;21.20;99.90
20885;DHT22;10602;48.000;9.654;2023-07-30T17:58:26;21.10;99.90
20885;DHT22;10602;48.000;9.654;2023-07-30T18:00:53;21.00;99.90
20885;DHT22;10602;48.000;9.654;2023-07-30T18:03:22;20.90;1.00
20885;DHT22;10602;48.000;9.654;2023-07-30T18:05:49;20.80;1.00
20885;DHT22;10602;48.000;9.654;2023-07-30T18:08:17;20.70;1.00
20885;DHT22;10602;48.000;9.654;2023-07-30T18:10:45;20.60;1.00
20885;DHT22;10602;48.000;9.654;2023-07-30T18:13:14;20.50;1.00
20885;DHT22;10602;48.000;9.654;2023-07-30T18:15:43;20.40;1.00
20885;DHT22;10602;48.000;9.654;2023-07-30T18:18:12;20.30;1.00
20885;DHT22;10602;48.000;9.654;2023-07-30T18:20:40;20.10;1.00
20885;DHT22;10602;48.000;9.654;2023-07-30T18:23:07;20.00;84.50
20885;DHT22;10602;48.000;9.654;2023-07-30T18:25:35;19.90;99.90
20885;DHT22;10602;48.000;9.654;2023-07-30T18:28:02;19.80;99.90
20885;DHT22;10602;48.000;9.654;2023-07-30T18:30:30;19.80;99.90
20885;DHT22;10602;48.000;9.654;2023-07-30T18:32:57;19.70;99.90
20885;DHT22;10602;48.000;9.654;2023-07-30T18:35:25;19.60;99.90
20885;DHT22;10602;48.000;9.654;2023-07-30T18:37:52;19.50;99.90
20885;DHT22;10602;48.000;9.654;2023-07-30T18:40:20;19.40;1.00
20885;DHT22;10602;48.000;9.654;2023-07-30T18:42:49;19.30;99.90
20885;DHT22;10602;48.000;9.654;2023-07-30T18:45:16;19.20;1.00
20885;DHT22;10602;48.000;9.654;2023-07-30T18:47:44;19.20;1.00
20885;DHT22;10602;48.000;9.654;2023-07-30T18:50:12;19.00;99.90
20885;DHT22;10602;48.000;9.654;2023-07-30T18:52:39;19.00;1.00
20885;DHT22;10602;48.000;9.654;2023-07-30T18:55:07;18.90;1.00
20885;DHT22;10602;48.000;9.654;2023-07-30T18:57:35;18.80;1.00
20885;DHT22;10602;48.000;9.654;2023-07-30T19:00:02;18.70;1.00
20885;DHT22;10602;48.000;9.654;2023-07-30T19:02:30;18.70;1.00
20885;DHT22;10602;48.000;9.654;2023-07-30T19:04:57;18.60;1.00
20885;DHT22;10602;48.000;9.654;2023-07-30T19:07:25;18.50;89.00
20885;DHT22;10602;48.000;9.654;2023-07-30T19:09:52;18.50;99.90
20885;DHT22;10602;48.000;9.654;2023-07-30T19:12:20;18.40;99.90
20885;DHT22;10602;48.000;9.654;2023-07-30T19:14:47;18.30;1.00
20885;DHT22;10602;48.000;9.654;2023-07-30T19:17:15;18.20;1.00
20885;DHT22;10602;48.000;9.654;2023-07-30T19:19:44;18.20;1.00
20885;DHT22;10602;48.000;9.654;2023-07-30T19:22:14;18.10;99.90
20885;DHT22;10602;48.000;9.654;2023-07-30T19:24:43;18.00;1.00
20885;DHT22;10602;48.000;9.654;2023-07-30T19:27:11;18.00;1.00
20885;DHT22;10602;48.000;9.654;2023-07-30T19:29:39;17.90;1.00
20885;DHT22;10602;48.000;9.654;2023-07-30T19:32:07;17.90;1.00
20885;DHT22;10602;48.000;9.654;2023-07-30T19:34:34;17.80;1.00
20885;DHT22;10602;48.000;9.654;2023-07-30T19:37:02;17.80;99.90
20885;DHT22;10602;48.000;9.654;2023-07-30T19:39:29;17.70;1.00
20885;DHT22;10602;48.000;9.654;2023-07-30T19:41:57;17.60;99.90
20885;DHT22;10602;48.000;9.654;2023-07-30T19:44:24;17.50;1.00
20885;DHT22;10602;48.000;9.654;2023-07-30T19:46:53;17.50;27.20
20885;DHT22;10602;48.000;9.654;2023-07-30T19:49:21;17.40;99.90
20885;DHT22;10602;48.000;9.654;2023-07-30T19:51:49;17.30;1.00
20885;DHT22;10602;48.000;9.654;2023-07-30T19:54:17;17.20;1.00
20885;DHT22;10602;48.000;9.654;2023-07-30T19:56:44;17.20;1.00
20885;DHT22;10602;48.000;9.654;2023-07-30T19:59:12;17.20;99.90
20885;DHT22;10602;48.000;9.654;2023-07-30T20:01:39;17.10;99.90
20885;DHT22;10602;48.000;9.654;2023-07-30T20:04:07;17.10;99.90
20885;DHT22;10602;48.000;9.654;2023-07-30T20:06:34;17.00;99.90
20885;DHT22;10602;48.000;9.654;2023-07-30T20:09:02;16.90;1.00
20885;DHT22;10602;48.000;9.654;2023-07-30T20:11:29;16.90;1.00
20885;DHT22;10602;48.000;9.654;2023-07-30T20:13:58;16.80;1.00
20885;DHT22;10602;48.000;9.654;2023-07-30T20:16:26;16.70;1.00
20885;DHT22;10602;48.000;9.654;2023-07-30T20:18:53;16.60;1.00
20885;DHT22;10602;48.000;9.654;2023-07-30T20:21:21;16.60;1.00
20885;DHT22;10602;48.000;9.654;2023-07-30T20:23:49;16.50;1.00
20885;DHT22;10602;48.000;9.654;2023-07-30T20:26:17;16.40;1.00
20885;DHT22;10602;48.000;9.654;2023-07-30T20:28:51;16.30;1.00
20885;DHT22;10602;48.000;9.654;2023-07-30T20:31:17;16.30;1.00
20885;DHT22;10602;48.000;9.654;2023-07-30T20:33:46;16.20;1.00
20885;DHT22;10602;48.000;9.654;2023-07-30T20:36:14;16.10;1.00
20885;DHT22;10602;48.000;9.654;2023-07-30T20:38:41;16.00;1.00
20885;DHT22;10602;48.000;9.654;2023-07-30T20:41:11;16.00;1.00
20885;DHT22;10602;48.000;9.654;2023-07-30T20:43:38;15.80;1.00
20885;DHT22;10602;48.000;9.654;2023-07-30T20:46:11;15.80;1.00
20885;DHT22;10602;48.000;9.654;2023-07-30T20:48:39;15.80;1.00
20885;DHT22;10602;48.000;9.654;2023-07-30T20:51:10;15.70;1.00
20885;DHT22;10602;48.000;9.654;2023-07-30T20:53:40;15.50;1.00
20885;DHT22;10602;48.000;9.654;2023-07-30T20:56:07;15.30;18.30
20885;DHT22;10602;48.000;9.654;2023-07-30T20:58:35;15.10;25.80
20885;DHT22;10602;48.000;9.654;2023-07-30T21:01:02;15.00;34.20
20885;DHT22;10602;48.000;9.654;2023-07-30T21:03:30;14.80;47.80
20885;DHT22;10602;48.000;9.654;2023-07-30T21:05:59;14.80;54.60
20885;DHT22;10602;48.000;9.654;2023-07-30T21:08:27;14.70;63.30
20885;DHT22;10602;48.000;9.654;2023-07-30T21:10:54;14.70;64.70
20885;DHT22;10602;48.000;9.654;2023-07-30T21:13:22;14.60;64.70
20885;DHT22;10602;48.000;9.654;2023-07-30T21:15:50;14.60;66.40
20885;DHT22;10602;48.000;9.654;2023-07-30T21:18:17;14.50;63.60
20885;DHT22;10602;48.000;9.654;2023-07-30T21:20:45;14.50;70.00
20885;DHT22;10602;48.000;9.654;2023-07-30T21:23:13;14.50;67.60
20885;DHT22;10602;48.000;9.654;2023-07-30T21:25:41;14.40;72.20
20885;DHT22;10602;48.000;9.654;2023-07-30T21:28:08;14.40;75.60
20885;DHT22;10602;48.000;9.654;2023-07-30T21:30:36;14.40;72.50
20885;DHT22;10602;48.000;9.654;2023-07-30T21:33:03;14.30;76.20
20885;DHT22;10602;48.000;9.654;2023-07-30T21:35:31;14.30;90.70
20885;DHT22;10602;48.000;9.654;2023-07-30T21:37:58;14.30;91.50
20885;DHT22;10602;48.000;9.654;2023-07-30T21:40:26;14.20;96.60
20885;DHT22;10602;48.000;9.654;2023-07-30T21:42:53;14.20;97.50
20885;DHT22;10602;48.000;9.654;2023-07-30T21:45:21;14.20;96.00